sensor_id;sensor_type;location;lat;lon;timestamp;P1;durP1;ratioP1;P2;durP2;ratioP2
69188;SDS011;56302;52.322;5.926;2024-02-15T00:00:41;21.95;;;10.00;;
69188;SDS011;56302;52.322;5.926;2024-02-15T00:03:08;22.90;;;10.52;;
69188;SDS011;56302;52.322;5.926;2024-02-15T00:05:38;22.95;;;9.75;;
69188;SDS011;56302;52.322;5.926;2024-02-15T00:08:04;25.97;;;10.60;;
69188;SDS011;56302;52.322;5.926;2024-02-15T00:10:31;21.40;;;9.65;;
69188;SDS011;56302;52.322;5.926;2024-02-15T00:12:57;19.13;;;9.20;;
69188;SDS011;56302;52.322;5.926;2024-02-15T00:15:22;22.90;;;9.83;;
69188;SDS011;56302;52.322;5.926;2024-02-15T00:17:48;23.08;;;9.50;;
69188;SDS011;56302;52.322;5.926;2024-02-15T00:20:14;20.33;;;8.90;;
69188;SDS011;56302;52.322;5.926;2024-02-15T00:22:39;26.38;;;9.80;;
69188;SDS011;56302;52.322;5.926;2024-02-15T00:25:08;19.35;;;9.30;;
69188;SDS011;56302;52.322;5.926;2024-02-15T00:27:36;22.17;;;9.02;;
69188;SDS011;56302;52.322;5.926;2024-02-15T00:30:02;19.35;;;9.18;;
69188;SDS011;56302;52.322;5.926;2024-02-15T00:32:30;18.25;;;8.68;;
69188;SDS011;56302;52.322;5.926;2024-02-15T00:34:55;25.50;;;9.27;;
69188;SDS011;56302;52.322;5.926;2024-02-15T00:37:21;22.92;;;8.93;;
69188;SDS011;56302;52.322;5.926;2024-02-15T00:39:47;22.47;;;9.17;;
69188;SDS011;56302;52.322;5.926;2024-02-15T00:42:13;23.30;;;9.27;;
69188;SDS011;56302;52.322;5.926;2024-02-15T00:44:40;20.00;;;8.35;;
69188;SDS011;56302;52.322;5.926;2024-02-15T00:47:07;25.05;;;8.23;;
69188;SDS011;56302;52.322;5.926;2024-02-15T00:49:34;26.48;;;10.35;;
69188;SDS011;56302;52.322;5.926;2024-02-15T00:52:01;26.17;;;9.02;;
69188;SDS011;56302;52.322;5.926;2024-02-15T00:54:26;21.27;;;8.13;;
69188;SDS011;56302;52.322;5.926;2024-02-15T00:56:52;28.13;;;9.02;;
69188;SDS011;56302;52.322;5.926;2024-02-15T00:59:17;23.60;;;8.50;;
69188;SDS011;56302;52.322;5.926;2024-02-15T01:01:43;23.35;;;8.38;;
69188;SDS011;56302;52.322;5.926;2024-02-15T01:04:09;18.50;;;7.60;;
69188;SDS011;56302;52.322;5.926;2024-02-15T01:06:35;24.38;;;8.80;;
69188;SDS011;56302;52.322;5.926;2024-02-15T01:09:01;25.75;;;9.43;;
69188;SDS011;56302;52.322;5.926;2024-02-15T01:11:28;25.05;;;8.13;;
69188;SDS011;56302;52.322;5.926;2024-02-15T01:13:55;21.05;;;8.35;;
69188;SDS011;56302;52.322;5.926;2024-02-15T01:16:20;20.60;;;8.30;;
69188;SDS011;56302;52.322;5.926;2024-02-15T01:18:46;21.83;;;8.73;;
69188;SDS011;56302;52.322;5.926;2024-02-15T01:21:12;20.60;;;7.70;;
69188;SDS011;56302;52.322;5.926;2024-02-15T01:23:38;21.25;;;8.32;;
69188;SDS011;56302;52.322;5.926;2024-02-15T01:26:04;20.38;;;8.32;;
69188;SDS011;56302;52.322;5.926;2024-02-15T01:28:30;19.83;;;8.38;;
69188;SDS011;56302;52.322;5.926;2024-02-15T01:30:55;26.63;;;8.40;;
69188;SDS011;56302;52.322;5.926;2024-02-15T01:33:21;22.42;;;8.38;;
69188;SDS011;56302;52.322;5.926;2024-02-15T01:35:47;25.23;;;8.00;;
69188;SDS011;56302;52.322;5.926;2024-02-15T01:38:13;29.30;;;9.48;;
69188;SDS011;56302;52.322;5.926;2024-02-15T01:40:39;15.50;;;8.02;;
69188;SDS011;56302;52.322;5.926;2024-02-15T01:43:04;18.17;;;8.20;;
69188;SDS011;56302;52.322;5.926;2024-02-15T01:45:30;24.92;;;8.48;;
69188;SDS011;56302;52.322;5.926;2024-02-15T01:47:56;23.07;;;9.17;;
69188;SDS011;56302;52.322;5.926;2024-02-15T01:50:23;21.60;;;8.88;;
69188;SDS011;56302;52.322;5.926;2024-02-15T01:52:50;23.08;;;9.07;;
69188;SDS011;56302;52.322;5.926;2024-02-15T01:55:19;21.02;;;8.63;;
69188;SDS011;56302;52.322;5.926;2024-02-15T01:57:46;20.77;;;8.52;;
69188;SDS011;56302;52.322;5.926;2024-02-15T02:00:17;23.30;;;9.38;;
69188;SDS011;56302;52.322;5.926;2024-02-15T02:02:44;21.27;;;10.00;;
69188;SDS011;56302;52.322;5.926;2024-02-15T02:05:10;19.90;;;9.70;;
69188;SDS011;56302;52.322;5.926;2024-02-15T02:07:36;23.93;;;10.13;;
69188;SDS011;56302;52.322;5.926;2024-02-15T02:10:03;24.85;;;11.27;;
69188;SDS011;56302;52.322;5.926;2024-02-15T02:12:29;26.17;;;12.93;;
69188;SDS011;56302;52.322;5.926;2024-02-15T02:14:56;27.88;;;12.65;;
69188;SDS011;56302;52.322;5.926;2024-02-15T02:17:21;26.53;;;13.63;;
69188;SDS011;56302;52.322;5.926;2024-02-15T02:19:47;31.33;;;14.27;;
69188;SDS011;56302;52.322;5.926;2024-02-15T02:22:15;33.95;;;14.80;;
69188;SDS011;56302;52.322;5.926;2024-02-15T02:27:28;32.03;;;15.75;;
69188;SDS011;56302;52.322;5.926;2024-02-15T02:29:55;29.30;;;15.35;;
69188;SDS011;56302;52.322;5.926;2024-02-15T02:32:22;33.30;;;15.65;;
69188;SDS011;56302;52.322;5.926;2024-02-15T02:34:47;29.80;;;15.10;;
69188;SDS011;56302;52.322;5.926;2024-02-15T02:37:13;32.20;;;15.38;;
69188;SDS011;56302;52.322;5.926;2024-02-15T02:39:38;33.43;;;15.17;;
69188;SDS011;56302;52.322;5.926;2024-02-15T02:42:04;33.40;;;15.00;;
69188;SDS011;56302;52.322;5.926;2024-02-15T02:44:30;28.27;;;14.67;;
69188;SDS011;56302;52.322;5.926;2024-02-15T02:46:55;29.63;;;13.57;;
69188;SDS011;56302;52.322;5.926;2024-02-15T02:49:21;32.53;;;14.95;;
69188;SDS011;56302;52.322;5.926;2024-02-15T02:51:48;28.52;;;15.25;;
69188;SDS011;56302;52.322;5.926;2024-02-15T02:54:13;27.23;;;13.87;;
69188;SDS011;56302;52.322;5.926;2024-02-15T02:56:40;29.63;;;14.10;;
69188;SDS011;56302;52.322;5.926;2024-02-15T02:59:08;29.77;;;14.85;;
69188;SDS011;56302;52.322;5.926;2024-02-15T03:01:34;30.88;;;14.32;;
69188;SDS011;56302;52.322;5.926;2024-02-15T03:04:00;27.57;;;14.03;;
69188;SDS011;56302;52.322;5.926;2024-02-15T03:06:26;29.67;;;14.52;;
69188;SDS011;56302;52.322;5.926;2024-02-15T03:08:52;26.73;;;14.05;;
69188;SDS011;56302;52.322;5.926;2024-02-15T03:11:19;26.60;;;13.67;;
69188;SDS011;56302;52.322;5.926;2024-02-15T03:13:45;26.08;;;13.73;;
69188;SDS011;56302;52.322;5.926;2024-02-15T03:16:11;31.20;;;15.48;;
69188;SDS011;56302;52.322;5.926;2024-02-15T03:18:36;27.73;;;13.03;;
69188;SDS011;56302;52.322;5.926;2024-02-15T03:21:02;37.80;;;14.03;;
69188;SDS011;56302;52.322;5.926;2024-02-15T03:23:29;26.48;;;13.35;;
69188;SDS011;56302;52.322;5.926;2024-02-15T03:25:55;26.15;;;13.13;;
69188;SDS011;56302;52.322;5.926;2024-02-15T03:28:21;28.08;;;12.77;;
69188;SDS011;56302;52.322;5.926;2024-02-15T03:30:49;27.63;;;12.25;;
69188;SDS011;56302;52.322;5.926;2024-02-15T03:33:15;26.65;;;12.32;;
69188;SDS011;56302;52.322;5.926;2024-02-15T03:35:41;29.23;;;11.27;;
69188;SDS011;56302;52.322;5.926;2024-02-15T03:38:07;23.70;;;11.23;;
69188;SDS011;56302;52.322;5.926;2024-02-15T03:40:32;25.40;;;11.13;;
69188;SDS011;56302;52.322;5.926;2024-02-15T03:42:58;24.60;;;12.50;;
69188;SDS011;56302;52.322;5.926;2024-02-15T03:45:24;26.07;;;10.50;;
69188;SDS011;56302;52.322;5.926;2024-02-15T03:47:53;24.08;;;11.30;;
69188;SDS011;56302;52.322;5.926;2024-02-15T03:50:20;27.95;;;10.15;;
69188;SDS011;56302;52.322;5.926;2024-02-15T03:52:49;20.90;;;9.52;;
69188;SDS011;56302;52.322;5.926;2024-02-15T03:55:15;22.38;;;9.40;;
69188;SDS011;56302;52.322;5.926;2024-02-15T03:57:41;23.20;;;9.82;;
69188;SDS011;56302;52.322;5.926;2024-02-15T04:00:08;22.08;;;9.95;;
69188;SDS011;56302;52.322;5.926;2024-02-15T04:02:36;24.13;;;9.82;;
69188;SDS011;56302;52.322;5.926;2024-02-15T04:05:02;21.00;;;9.52;;
69188;SDS011;56302;52.322;5.926;2024-02-15T04:07:29;21.60;;;9.23;;
69188;SDS011;56302;52.322;5.926;2024-02-15T04:09:55;20.85;;;8.90;;
69188;SDS011;56302;52.322;5.926;2024-02-15T04:12:21;21.50;;;9.43;;
69188;SDS011;56302;52.322;5.926;2024-02-15T04:14:47;18.33;;;9.88;;
69188;SDS011;56302;52.322;5.926;2024-02-15T04:17:14;20.25;;;9.43;;
69188;SDS011;56302;52.322;5.926;2024-02-15T04:19:43;20.60;;;8.23;;
69188;SDS011;56302;52.322;5.926;2024-02-15T04:22:10;18.98;;;9.40;;
69188;SDS011;56302;52.322;5.926;2024-02-15T04:24:36;24.50;;;9.10;;
69188;SDS011;56302;52.322;5.926;2024-02-15T04:27:07;19.73;;;8.98;;
69188;SDS011;56302;52.322;5.926;2024-02-15T04:29:36;25.20;;;10.02;;
69188;SDS011;56302;52.322;5.926;2024-02-15T04:32:05;17.95;;;8.40;;
69188;SDS011;56302;52.322;5.926;2024-02-15T04:34:34;17.40;;;8.27;;
69188;SDS011;56302;52.322;5.926;2024-02-15T04:37:00;19.75;;;8.85;;
69188;SDS011;56302;52.322;5.926;2024-02-15T04:39:29;17.03;;;8.13;;
69188;SDS011;56302;52.322;5.926;2024-02-15T04:41:55;19.38;;;8.43;;
69188;SDS011;56302;52.322;5.926;2024-02-15T04:44:21;17.55;;;6.90;;
69188;SDS011;56302;52.322;5.926;2024-02-15T04:46:47;18.10;;;8.27;;
69188;SDS011;56302;52.322;5.926;2024-02-15T04:49:14;21.05;;;8.10;;
69188;SDS011;56302;52.322;5.926;2024-02-15T04:51:40;20.70;;;8.10;;
69188;SDS011;56302;52.322;5.926;2024-02-15T04:54:07;17.10;;;7.68;;
69188;SDS011;56302;52.322;5.926;2024-02-15T04:56:33;21.50;;;8.27;;
69188;SDS011;56302;52.322;5.926;2024-02-15T04:59:01;26.08;;;8.55;;
69188;SDS011;56302;52.322;5.926;2024-02-15T05:01:27;16.92;;;7.28;;
69188;SDS011;56302;52.322;5.926;2024-02-15T05:03:54;18.60;;;7.57;;
69188;SDS011;56302;52.322;5.926;2024-02-15T05:06:20;17.90;;;7.60;;
69188;SDS011;56302;52.322;5.926;2024-02-15T05:08:46;19.67;;;7.73;;
69188;SDS011;56302;52.322;5.926;2024-02-15T05:11:12;17.52;;;7.47;;
69188;SDS011;56302;52.322;5.926;2024-02-15T05:13:45;14.02;;;6.95;;
69188;SDS011;56302;52.322;5.926;2024-02-15T05:16:11;20.90;;;7.38;;
69188;SDS011;56302;52.322;5.926;2024-02-15T05:18:37;18.30;;;7.13;;
69188;SDS011;56302;52.322;5.926;2024-02-15T05:21:05;18.37;;;6.93;;
69188;SDS011;56302;52.322;5.926;2024-02-15T05:23:37;18.52;;;7.10;;
69188;SDS011;56302;52.322;5.926;2024-02-15T05:26:08;18.95;;;7.40;;
69188;SDS011;56302;52.322;5.926;2024-02-15T05:28:33;17.33;;;7.05;;
69188;SDS011;56302;52.322;5.926;2024-02-15T05:33:54;16.97;;;6.77;;
69188;SDS011;56302;52.322;5.926;2024-02-15T05:36:20;20.23;;;6.78;;
69188;SDS011;56302;52.322;5.926;2024-02-15T05:38:47;17.33;;;7.13;;
69188;SDS011;56302;52.322;5.926;2024-02-15T05:41:14;16.90;;;6.87;;
69188;SDS011;56302;52.322;5.926;2024-02-15T05:43:39;18.80;;;6.65;;
69188;SDS011;56302;52.322;5.926;2024-02-15T05:46:08;20.98;;;7.13;;
69188;SDS011;56302;52.322;5.926;2024-02-15T05:48:35;16.47;;;6.20;;
69188;SDS011;56302;52.322;5.926;2024-02-15T05:51:02;16.73;;;6.10;;
69188;SDS011;56302;52.322;5.926;2024-02-15T05:53:29;14.25;;;6.50;;
69188;SDS011;56302;52.322;5.926;2024-02-15T05:55:55;15.32;;;6.35;;
69188;SDS011;56302;52.322;5.926;2024-02-15T05:58:25;15.77;;;6.20;;
69188;SDS011;56302;52.322;5.926;2024-02-15T06:00:51;14.13;;;5.97;;
69188;SDS011;56302;52.322;5.926;2024-02-15T06:03:18;15.10;;;6.13;;
69188;SDS011;56302;52.322;5.926;2024-02-15T06:05:44;16.20;;;6.32;;
69188;SDS011;56302;52.322;5.926;2024-02-15T06:08:10;13.13;;;6.68;;
69188;SDS011;56302;52.322;5.926;2024-02-15T06:10:39;15.63;;;6.47;;
69188;SDS011;56302;52.322;5.926;2024-02-15T06:13:05;10.80;;;5.80;;
69188;SDS011;56302;52.322;5.926;2024-02-15T06:15:33;14.52;;;6.38;;
69188;SDS011;56302;52.322;5.926;2024-02-15T06:17:59;13.00;;;5.85;;
69188;SDS011;56302;52.322;5.926;2024-02-15T06:20:25;14.57;;;6.07;;
69188;SDS011;56302;52.322;5.926;2024-02-15T06:22:54;20.48;;;6.18;;
69188;SDS011;56302;52.322;5.926;2024-02-15T06:25:20;13.02;;;5.60;;
69188;SDS011;56302;52.322;5.926;2024-02-15T06:27:46;11.53;;;5.40;;
69188;SDS011;56302;52.322;5.926;2024-02-15T06:30:14;11.10;;;5.80;;
69188;SDS011;56302;52.322;5.926;2024-02-15T06:32:58;12.60;;;5.80;;
69188;SDS011;56302;52.322;5.926;2024-02-15T06:35:42;10.40;;;5.60;;
69188;SDS011;56302;52.322;5.926;2024-02-15T06:38:26;10.20;;;5.17;;
69188;SDS011;56302;52.322;5.926;2024-02-15T06:41:10;12.60;;;5.60;;
69188;SDS011;56302;52.322;5.926;2024-02-15T06:43:36;13.70;;;6.28;;
69188;SDS011;56302;52.322;5.926;2024-02-15T06:46:02;10.67;;;5.10;;
69188;SDS011;56302;52.322;5.926;2024-02-15T06:48:31;12.20;;;5.63;;
69188;SDS011;56302;52.322;5.926;2024-02-15T06:50:57;12.38;;;5.82;;
69188;SDS011;56302;52.322;5.926;2024-02-15T06:53:23;14.13;;;5.47;;
69188;SDS011;56302;52.322;5.926;2024-02-15T06:55:49;16.17;;;5.10;;
69188;SDS011;56302;52.322;5.926;2024-02-15T06:58:15;14.82;;;5.82;;
69188;SDS011;56302;52.322;5.926;2024-02-15T07:00:42;11.68;;;5.63;;
69188;SDS011;56302;52.322;5.926;2024-02-15T07:03:10;12.55;;;5.68;;
69188;SDS011;56302;52.322;5.926;2024-02-15T07:05:36;15.63;;;6.13;;
69188;SDS011;56302;52.322;5.926;2024-02-15T07:08:07;16.95;;;5.68;;
69188;SDS011;56302;52.322;5.926;2024-02-15T07:10:36;15.25;;;5.90;;
69188;SDS011;56302;52.322;5.926;2024-02-15T07:13:03;11.57;;;5.90;;
69188;SDS011;56302;52.322;5.926;2024-02-15T07:15:29;14.02;;;5.95;;
69188;SDS011;56302;52.322;5.926;2024-02-15T07:17:58;14.38;;;5.68;;
69188;SDS011;56302;52.322;5.926;2024-02-15T07:20:24;14.90;;;6.60;;
69188;SDS011;56302;52.322;5.926;2024-02-15T07:22:50;10.35;;;6.10;;
69188;SDS011;56302;52.322;5.926;2024-02-15T07:25:16;12.97;;;6.30;;
69188;SDS011;56302;52.322;5.926;2024-02-15T07:27:43;13.48;;;6.00;;
69188;SDS011;56302;52.322;5.926;2024-02-15T07:30:08;14.48;;;6.18;;
69188;SDS011;56302;52.322;5.926;2024-02-15T07:32:34;18.02;;;7.40;;
69188;SDS011;56302;52.322;5.926;2024-02-15T07:35:00;12.93;;;6.47;;
69188;SDS011;56302;52.322;5.926;2024-02-15T07:37:26;16.20;;;7.13;;
69188;SDS011;56302;52.322;5.926;2024-02-15T07:40:05;17.23;;;6.63;;
69188;SDS011;56302;52.322;5.926;2024-02-15T07:42:33;15.55;;;6.57;;
69188;SDS011;56302;52.322;5.926;2024-02-15T07:45:00;14.32;;;6.95;;
69188;SDS011;56302;52.322;5.926;2024-02-15T07:47:25;14.63;;;6.82;;
69188;SDS011;56302;52.322;5.926;2024-02-15T07:49:51;15.45;;;6.15;;
69188;SDS011;56302;52.322;5.926;2024-02-15T07:52:17;10.23;;;5.53;;
69188;SDS011;56302;52.322;5.926;2024-02-15T07:54:43;11.82;;;5.63;;
69188;SDS011;56302;52.322;5.926;2024-02-15T07:57:09;9.63;;;5.53;;
69188;SDS011;56302;52.322;5.926;2024-02-15T07:59:35;12.80;;;5.53;;
69188;SDS011;56302;52.322;5.926;2024-02-15T08:02:04;8.10;;;4.97;;
69188;SDS011;56302;52.322;5.926;2024-02-15T08:04:30;7.60;;;4.00;;
69188;SDS011;56302;52.322;5.926;2024-02-15T08:06:56;8.18;;;4.50;;
69188;SDS011;56302;52.322;5.926;2024-02-15T08:09:22;8.27;;;4.47;;
69188;SDS011;56302;52.322;5.926;2024-02-15T08:11:49;8.73;;;4.23;;
69188;SDS011;56302;52.322;5.926;2024-02-15T08:14:16;6.03;;;3.78;;
69188;SDS011;56302;52.322;5.926;2024-02-15T08:16:41;11.48;;;4.60;;
69188;SDS011;56302;52.322;5.926;2024-02-15T08:19:07;6.93;;;4.10;;
69188;SDS011;56302;52.322;5.926;2024-02-15T08:21:33;7.13;;;3.97;;
69188;SDS011;56302;52.322;5.926;2024-02-15T08:24:04;8.23;;;3.90;;
69188;SDS011;56302;52.322;5.926;2024-02-15T08:26:33;7.82;;;3.50;;
69188;SDS011;56302;52.322;5.926;2024-02-15T08:29:01;6.78;;;3.38;;
69188;SDS011;56302;52.322;5.926;2024-02-15T08:31:28;7.25;;;3.13;;
69188;SDS011;56302;52.322;5.926;2024-02-15T08:33:53;6.60;;;2.67;;
69188;SDS011;56302;52.322;5.926;2024-02-15T08:36:19;5.30;;;2.40;;
69188;SDS011;56302;52.322;5.926;2024-02-15T08:38:46;5.53;;;2.50;;
69188;SDS011;56302;52.322;5.926;2024-02-15T08:41:12;6.90;;;2.42;;
69188;SDS011;56302;52.322;5.926;2024-02-15T08:43:37;4.28;;;2.13;;
69188;SDS011;56302;52.322;5.926;2024-02-15T08:46:06;4.45;;;2.60;;
69188;SDS011;56302;52.322;5.926;2024-02-15T08:48:32;4.68;;;2.28;;
69188;SDS011;56302;52.322;5.926;2024-02-15T08:50:58;4.35;;;2.03;;
69188;SDS011;56302;52.322;5.926;2024-02-15T08:53:24;6.43;;;1.90;;
69188;SDS011;56302;52.322;5.926;2024-02-15T08:55:49;3.58;;;1.58;;
69188;SDS011;56302;52.322;5.926;2024-02-15T08:58:17;4.55;;;1.90;;
69188;SDS011;56302;52.322;5.926;2024-02-15T09:00:46;4.30;;;1.90;;
69188;SDS011;56302;52.322;5.926;2024-02-15T09:03:12;5.90;;;2.05;;
69188;SDS011;56302;52.322;5.926;2024-02-15T09:05:38;3.73;;;1.60;;
69188;SDS011;56302;52.322;5.926;2024-02-15T09:08:05;4.07;;;1.30;;
69188;SDS011;56302;52.322;5.926;2024-02-15T09:10:32;3.50;;;1.60;;
69188;SDS011;56302;52.322;5.926;2024-02-15T09:12:57;4.30;;;1.70;;
69188;SDS011;56302;52.322;5.926;2024-02-15T09:15:23;3.85;;;1.45;;
69188;SDS011;56302;52.322;5.926;2024-02-15T09:17:49;3.13;;;1.00;;
69188;SDS011;56302;52.322;5.926;2024-02-15T09:20:16;3.78;;;1.40;;
69188;SDS011;56302;52.322;5.926;2024-02-15T09:22:48;3.05;;;1.60;;
69188;SDS011;56302;52.322;5.926;2024-02-15T09:25:15;3.60;;;1.35;;
69188;SDS011;56302;52.322;5.926;2024-02-15T09:27:42;3.15;;;1.20;;
69188;SDS011;56302;52.322;5.926;2024-02-15T09:30:08;3.65;;;1.17;;
69188;SDS011;56302;52.322;5.926;2024-02-15T09:32:38;3.63;;;1.02;;
69188;SDS011;56302;52.322;5.926;2024-02-15T09:35:04;2.50;;;1.00;;
69188;SDS011;56302;52.322;5.926;2024-02-15T09:37:33;2.78;;;1.08;;
69188;SDS011;56302;52.322;5.926;2024-02-15T09:40:08;3.55;;;0.90;;
69188;SDS011;56302;52.322;5.926;2024-02-15T09:42:35;2.28;;;0.82;;
69188;SDS011;56302;52.322;5.926;2024-02-15T09:45:02;2.45;;;0.88;;
69188;SDS011;56302;52.322;5.926;2024-02-15T09:47:34;2.20;;;0.90;;
69188;SDS011;56302;52.322;5.926;2024-02-15T09:50:01;2.40;;;1.05;;
69188;SDS011;56302;52.322;5.926;2024-02-15T09:52:36;2.45;;;1.00;;
69188;SDS011;56302;52.322;5.926;2024-02-15T09:55:03;2.47;;;1.00;;
69188;SDS011;56302;52.322;5.926;2024-02-15T09:57:30;2.10;;;1.00;;
69188;SDS011;56302;52.322;5.926;2024-02-15T10:00:00;2.45;;;1.00;;
69188;SDS011;56302;52.322;5.926;2024-02-15T10:02:28;3.22;;;1.00;;
69188;SDS011;56302;52.322;5.926;2024-02-15T10:04:55;2.70;;;1.30;;
69188;SDS011;56302;52.322;5.926;2024-02-15T10:07:24;2.88;;;0.90;;
69188;SDS011;56302;52.322;5.926;2024-02-15T10:09:52;2.28;;;1.02;;
69188;SDS011;56302;52.322;5.926;2024-02-15T10:12:18;4.82;;;1.50;;
69188;SDS011;56302;52.322;5.926;2024-02-15T10:14:49;3.08;;;1.45;;
69188;SDS011;56302;52.322;5.926;2024-02-15T10:17:16;4.35;;;1.40;;
69188;SDS011;56302;52.322;5.926;2024-02-15T10:19:43;5.10;;;1.40;;
69188;SDS011;56302;52.322;5.926;2024-02-15T10:22:11;5.22;;;1.48;;
69188;SDS011;56302;52.322;5.926;2024-02-15T10:24:39;4.13;;;1.52;;
69188;SDS011;56302;52.322;5.926;2024-02-15T10:27:06;3.72;;;1.45;;
69188;SDS011;56302;52.322;5.926;2024-02-15T10:29:32;4.40;;;1.77;;
69188;SDS011;56302;52.322;5.926;2024-02-15T10:31:59;4.97;;;1.40;;
69188;SDS011;56302;52.322;5.926;2024-02-15T10:34:26;6.40;;;2.22;;
69188;SDS011;56302;52.322;5.926;2024-02-15T10:37:16;5.13;;;2.10;;
69188;SDS011;56302;52.322;5.926;2024-02-15T10:39:42;5.82;;;2.88;;
69188;SDS011;56302;52.322;5.926;2024-02-15T10:42:08;5.28;;;2.40;;
69188;SDS011;56302;52.322;5.926;2024-02-15T10:44:37;6.28;;;2.80;;
69188;SDS011;56302;52.322;5.926;2024-02-15T10:47:06;6.88;;;2.80;;
69188;SDS011;56302;52.322;5.926;2024-02-15T10:49:34;7.03;;;2.63;;
69188;SDS011;56302;52.322;5.926;2024-02-15T10:52:03;5.63;;;2.58;;
69188;SDS011;56302;52.322;5.926;2024-02-15T10:56:57;10.05;;;3.42;;
69188;SDS011;56302;52.322;5.926;2024-02-15T10:59:29;8.13;;;2.85;;
69188;SDS011;56302;52.322;5.926;2024-02-15T11:01:59;6.33;;;2.90;;
69188;SDS011;56302;52.322;5.926;2024-02-15T11:04:25;7.40;;;3.28;;
69188;SDS011;56302;52.322;5.926;2024-02-15T11:06:57;9.60;;;3.25;;
69188;SDS011;56302;52.322;5.926;2024-02-15T11:09:23;7.53;;;3.55;;
69188;SDS011;56302;52.322;5.926;2024-02-15T11:11:52;8.53;;;3.27;;
69188;SDS011;56302;52.322;5.926;2024-02-15T11:16:57;10.32;;;4.03;;
69188;SDS011;56302;52.322;5.926;2024-02-15T11:19:43;10.90;;;4.45;;
69188;SDS011;56302;52.322;5.926;2024-02-15T11:22:12;8.38;;;4.22;;
69188;SDS011;56302;52.322;5.926;2024-02-15T11:24:58;9.33;;;3.80;;
69188;SDS011;56302;52.322;5.926;2024-02-15T11:27:28;8.00;;;3.70;;
69188;SDS011;56302;52.322;5.926;2024-02-15T11:30:01;10.43;;;3.80;;
69188;SDS011;56302;52.322;5.926;2024-02-15T11:32:50;9.73;;;3.97;;
69188;SDS011;56302;52.322;5.926;2024-02-15T11:35:24;10.75;;;4.00;;
69188;SDS011;56302;52.322;5.926;2024-02-15T11:37:59;8.07;;;3.23;;
69188;SDS011;56302;52.322;5.926;2024-02-15T11:40:39;11.70;;;4.10;;
69188;SDS011;56302;52.322;5.926;2024-02-15T11:46:08;9.98;;;3.72;;
69188;SDS011;56302;52.322;5.926;2024-02-15T11:48:38;9.27;;;4.20;;
69188;SDS011;56302;52.322;5.926;2024-02-15T11:51:07;12.70;;;4.17;;
69188;SDS011;56302;52.322;5.926;2024-02-15T11:53:36;7.88;;;3.53;;
69188;SDS011;56302;52.322;5.926;2024-02-15T11:56:02;9.48;;;4.20;;
69188;SDS011;56302;52.322;5.926;2024-02-15T11:58:30;12.82;;;4.45;;
69188;SDS011;56302;52.322;5.926;2024-02-15T12:01:10;9.32;;;3.85;;
69188;SDS011;56302;52.322;5.926;2024-02-15T12:03:55;8.07;;;3.50;;
69188;SDS011;56302;52.322;5.926;2024-02-15T12:06:39;8.80;;;3.95;;
69188;SDS011;56302;52.322;5.926;2024-02-15T12:09:24;11.88;;;4.05;;
69188;SDS011;56302;52.322;5.926;2024-02-15T12:12:11;10.55;;;3.72;;
69188;SDS011;56302;52.322;5.926;2024-02-15T12:15:02;9.57;;;4.53;;
69188;SDS011;56302;52.322;5.926;2024-02-15T12:17:46;12.03;;;4.40;;
69188;SDS011;56302;52.322;5.926;2024-02-15T12:20:30;11.75;;;3.83;;
69188;SDS011;56302;52.322;5.926;2024-02-15T12:22:56;10.57;;;4.32;;
69188;SDS011;56302;52.322;5.926;2024-02-15T12:25:25;11.80;;;4.25;;
69188;SDS011;56302;52.322;5.926;2024-02-15T12:27:52;11.25;;;4.70;;
69188;SDS011;56302;52.322;5.926;2024-02-15T12:30:19;10.43;;;3.93;;
69188;SDS011;56302;52.322;5.926;2024-02-15T12:32:46;11.93;;;4.57;;
69188;SDS011;56302;52.322;5.926;2024-02-15T12:35:13;9.60;;;4.05;;
69188;SDS011;56302;52.322;5.926;2024-02-15T12:37:48;9.93;;;4.18;;
69188;SDS011;56302;52.322;5.926;2024-02-15T12:40:37;8.85;;;4.40;;
69188;SDS011;56302;52.322;5.926;2024-02-15T12:43:06;11.63;;;3.93;;
69188;SDS011;56302;52.322;5.926;2024-02-15T12:45:37;9.35;;;4.15;;
69188;SDS011;56302;52.322;5.926;2024-02-15T12:48:04;9.02;;;4.43;;
69188;SDS011;56302;52.322;5.926;2024-02-15T12:50:31;10.57;;;4.20;;
69188;SDS011;56302;52.322;5.926;2024-02-15T12:52:57;10.73;;;4.70;;
69188;SDS011;56302;52.322;5.926;2024-02-15T12:55:27;12.47;;;4.73;;
69188;SDS011;56302;52.322;5.926;2024-02-15T12:57:55;9.38;;;4.88;;
69188;SDS011;56302;52.322;5.926;2024-02-15T13:00:25;9.23;;;4.50;;
69188;SDS011;56302;52.322;5.926;2024-02-15T13:02:57;13.18;;;4.13;;
69188;SDS011;56302;52.322;5.926;2024-02-15T13:05:24;8.35;;;4.20;;
69188;SDS011;56302;52.322;5.926;2024-02-15T13:07:51;15.00;;;4.33;;
69188;SDS011;56302;52.322;5.926;2024-02-15T13:10:20;12.18;;;4.30;;
69188;SDS011;56302;52.322;5.926;2024-02-15T13:12:46;11.30;;;4.32;;
69188;SDS011;56302;52.322;5.926;2024-02-15T13:15:12;9.85;;;4.50;;
69188;SDS011;56302;52.322;5.926;2024-02-15T13:17:49;12.02;;;5.20;;
69188;SDS011;56302;52.322;5.926;2024-02-15T13:20:18;8.65;;;4.22;;
69188;SDS011;56302;52.322;5.926;2024-02-15T13:22:45;10.13;;;4.30;;
69188;SDS011;56302;52.322;5.926;2024-02-15T13:25:14;10.90;;;4.00;;
69188;SDS011;56302;52.322;5.926;2024-02-15T13:27:46;14.57;;;4.45;;
69188;SDS011;56302;52.322;5.926;2024-02-15T13:30:12;9.55;;;4.47;;
69188;SDS011;56302;52.322;5.926;2024-02-15T13:32:39;10.98;;;4.68;;
69188;SDS011;56302;52.322;5.926;2024-02-15T13:35:08;9.93;;;3.90;;
69188;SDS011;56302;52.322;5.926;2024-02-15T13:37:56;10.88;;;4.00;;
69188;SDS011;56302;52.322;5.926;2024-02-15T13:40:23;7.50;;;3.95;;
69188;SDS011;56302;52.322;5.926;2024-02-15T13:42:51;10.23;;;4.00;;
69188;SDS011;56302;52.322;5.926;2024-02-15T13:45:21;8.15;;;3.50;;
69188;SDS011;56302;52.322;5.926;2024-02-15T13:47:48;9.32;;;3.92;;
69188;SDS011;56302;52.322;5.926;2024-02-15T13:50:20;10.98;;;3.60;;
69188;SDS011;56302;52.322;5.926;2024-02-15T13:52:46;8.77;;;3.60;;
69188;SDS011;56302;52.322;5.926;2024-02-15T13:55:13;10.15;;;3.25;;
69188;SDS011;56302;52.322;5.926;2024-02-15T13:57:43;9.30;;;3.17;;
69188;SDS011;56302;52.322;5.926;2024-02-15T14:00:12;7.22;;;2.70;;
69188;SDS011;56302;52.322;5.926;2024-02-15T14:02:42;8.07;;;2.72;;
69188;SDS011;56302;52.322;5.926;2024-02-15T14:05:09;12.05;;;2.65;;
69188;SDS011;56302;52.322;5.926;2024-02-15T14:07:36;8.88;;;2.85;;
69188;SDS011;56302;52.322;5.926;2024-02-15T14:10:04;10.65;;;2.95;;
69188;SDS011;56302;52.322;5.926;2024-02-15T14:12:30;8.68;;;2.80;;
69188;SDS011;56302;52.322;5.926;2024-02-15T14:14:56;5.93;;;2.53;;
69188;SDS011;56302;52.322;5.926;2024-02-15T14:17:22;8.40;;;3.10;;
69188;SDS011;56302;52.322;5.926;2024-02-15T14:19:48;8.53;;;2.97;;
69188;SDS011;56302;52.322;5.926;2024-02-15T14:22:14;9.38;;;2.80;;
69188;SDS011;56302;52.322;5.926;2024-02-15T14:24:44;7.43;;;2.17;;
69188;SDS011;56302;52.322;5.926;2024-02-15T14:27:10;8.35;;;2.53;;
69188;SDS011;56302;52.322;5.926;2024-02-15T14:29:36;6.28;;;2.47;;
69188;SDS011;56302;52.322;5.926;2024-02-15T14:32:10;7.15;;;2.53;;
69188;SDS011;56302;52.322;5.926;2024-02-15T14:34:55;9.13;;;2.42;;
69188;SDS011;56302;52.322;5.926;2024-02-15T14:37:21;8.80;;;2.17;;
69188;SDS011;56302;52.322;5.926;2024-02-15T14:39:47;7.78;;;2.40;;
69188;SDS011;56302;52.322;5.926;2024-02-15T14:42:13;6.73;;;2.53;;
69188;SDS011;56302;52.322;5.926;2024-02-15T14:44:39;7.72;;;2.35;;
69188;SDS011;56302;52.322;5.926;2024-02-15T14:47:05;6.63;;;2.30;;
69188;SDS011;56302;52.322;5.926;2024-02-15T14:49:30;6.60;;;2.03;;
69188;SDS011;56302;52.322;5.926;2024-02-15T14:51:56;9.32;;;2.40;;
69188;SDS011;56302;52.322;5.926;2024-02-15T14:54:22;8.98;;;2.30;;
69188;SDS011;56302;52.322;5.926;2024-02-15T14:56:47;6.53;;;2.10;;